createdAt,value
2023-02-18T00:00:23.813Z,9.68
2023-02-18T00:05:48.803Z,9.73
2023-02-18T00:10:53.351Z,12.88
2023-02-18T00:16:02.510Z,12.20
2023-02-18T00:21:09.671Z,21.10
2023-02-18T00:26:15.615Z,15.82
2023-02-18T00:31:22.124Z,13.68
2023-02-18T00:36:27.698Z,8.68
2023-02-18T00:41:32.619Z,19.35
2023-02-18T00:46:36.539Z,7.63
2023-02-18T00:51:41.731Z,10.57
2023-02-18T00:56:45.462Z,7.15
2023-02-18T01:01:49.204Z,7.25
2023-02-18T01:06:54.428Z,6.20
2023-02-18T01:11:58.097Z,8.23
2023-02-18T01:17:01.857Z,4.90
2023-02-18T01:22:07.536Z,6.28
2023-02-18T01:27:11.942Z,4.47
2023-02-18T01:32:15.773Z,2.70
2023-02-18T01:37:20.856Z,4.00
2023-02-18T01:42:26.417Z,4.60
2023-02-18T01:47:30.424Z,3.78
2023-02-18T01:52:35.478Z,5.18
2023-02-18T01:57:40.132Z,4.05
2023-02-18T02:02:47.292Z,3.53
2023-02-18T02:07:55.475Z,3.85
2023-02-18T02:13:06.785Z,1.88
2023-02-18T02:18:26.246Z,3.60
2023-02-18T02:24:22.798Z,3.30
2023-02-18T02:29:50.263Z,1.98
2023-02-18T02:34:59.841Z,2.33
2023-02-18T02:40:14.628Z,2.58
2023-02-18T02:45:25.713Z,4.00
2023-02-18T02:50:39.168Z,1.77
2023-02-18T02:55:42.903Z,1.75
2023-02-18T03:07:13.379Z,2.30
2023-02-18T03:12:26.679Z,1.52
2023-02-18T03:17:38.274Z,2.05
2023-02-18T03:22:48.714Z,1.65
2023-02-18T03:27:56.698Z,1.55
2023-02-18T03:33:05.322Z,1.60
2023-02-18T03:38:15.706Z,1.35
2023-02-18T03:43:19.405Z,2.28
2023-02-18T03:48:23.141Z,1.80
2023-02-18T03:53:30.558Z,2.55
2023-02-18T03:58:34.205Z,1.65
2023-02-18T04:03:37.841Z,2.08
2023-02-18T04:08:42.881Z,1.88
2023-02-18T04:13:46.584Z,2.30
2023-02-18T04:18:50.222Z,1.67
2023-02-18T04:23:55.257Z,1.13
2023-02-18T04:28:59.010Z,1.40
2023-02-18T04:34:02.724Z,1.70
2023-02-18T04:39:07.825Z,1.42
2023-02-18T04:44:11.520Z,1.80
2023-02-18T04:49:15.348Z,3.25
2023-02-18T04:54:20.410Z,1.45
2023-02-18T04:59:24.276Z,2.42
2023-02-18T05:04:28.124Z,1.20
2023-02-18T05:09:33.628Z,1.30
2023-02-18T05:14:37.430Z,1.67
2023-02-18T05:19:41.124Z,1.13
2023-02-18T05:24:46.234Z,1.30
2023-02-18T05:29:49.904Z,1.10
2023-02-18T05:34:53.566Z,1.98
2023-02-18T05:39:58.684Z,1.92
2023-02-18T05:45:02.390Z,1.60
2023-02-18T05:50:07.456Z,1.92
2023-02-18T05:55:12.651Z,1.60
2023-02-18T06:00:16.937Z,2.60
2023-02-18T06:05:20.815Z,1.60
2023-02-18T06:10:25.888Z,2.22
2023-02-18T06:15:29.608Z,3.30
2023-02-18T06:20:33.518Z,2.90
2023-02-18T06:25:38.562Z,2.20
2023-02-18T06:30:42.224Z,1.85
2023-02-18T06:35:55.315Z,1.70
2023-02-18T06:41:00.381Z,2.55
2023-02-18T06:46:04.445Z,4.65
2023-02-18T06:51:08.250Z,2.30
2023-02-18T06:56:13.652Z,2.25
2023-02-18T07:01:17.387Z,2.75
2023-02-18T07:06:21.118Z,2.05
2023-02-18T07:11:26.149Z,2.38
2023-02-18T07:16:30.008Z,2.95
2023-02-18T07:21:33.695Z,4.80
2023-02-18T07:26:38.937Z,4.82
2023-02-18T07:31:42.715Z,3.63
2023-02-18T07:36:46.769Z,3.08
2023-02-18T07:41:52.004Z,3.95
2023-02-18T07:46:55.767Z,2.67
2023-02-18T07:51:59.605Z,3.65
2023-02-18T07:57:04.853Z,2.75
2023-02-18T08:02:08.778Z,4.28
2023-02-18T08:07:14.551Z,5.70
2023-02-18T08:12:19.615Z,11.98
2023-02-18T08:17:23.364Z,6.32
2023-02-18T08:22:27.114Z,7.53
2023-02-18T08:27:33.070Z,5.93
2023-02-18T08:32:37.459Z,3.05
2023-02-18T08:37:52.751Z,2.55
2023-02-18T08:42:59.335Z,4.53
2023-02-18T08:48:18.202Z,5.10
2023-02-18T08:53:23.759Z,5.13
2023-02-18T08:58:28.915Z,3.67
2023-02-18T09:03:32.680Z,4.63
2023-02-18T09:08:36.468Z,8.35
2023-02-18T09:13:42.094Z,6.70
2023-02-18T09:18:46.094Z,3.38
2023-02-18T09:23:50.025Z,7.50
2023-02-18T09:28:56.517Z,22.83
2023-02-18T09:34:02.592Z,23.67
2023-02-18T09:39:06.778Z,35.60
2023-02-18T09:44:17.792Z,60.38
2023-02-18T09:49:25.986Z,51.55
2023-02-18T09:54:29.985Z,62.45
2023-02-18T09:59:35.274Z,18.70
2023-02-18T10:04:45.822Z,26.75
2023-02-18T10:09:52.174Z,44.08
2023-02-18T10:15:00.411Z,19.63
2023-02-18T10:20:07.957Z,13.98
2023-02-18T10:25:20.238Z,20.70
2023-02-18T10:30:33.738Z,3.88
2023-02-18T10:35:48.525Z,12.20
2023-02-18T10:41:02.186Z,16.15
2023-02-18T10:46:18.926Z,31.23
2023-02-18T10:51:25.734Z,26.02
2023-02-18T10:56:39.499Z,20.13
2023-02-18T11:01:45.278Z,18.80
2023-02-18T11:06:50.777Z,9.35
2023-02-18T11:12:08.347Z,8.43
2023-02-18T11:17:29.022Z,7.95
2023-02-18T11:22:37.137Z,9.77
2023-02-18T11:27:45.674Z,8.60
2023-02-18T11:32:57.438Z,7.50
2023-02-18T11:38:03.437Z,6.07
2023-02-18T11:43:13.269Z,5.93
2023-02-18T11:48:20.732Z,7.18
2023-02-18T11:53:29.573Z,12.82
2023-02-18T11:58:39.910Z,10.87
2023-02-18T12:03:50.606Z,9.68
2023-02-18T12:08:58.288Z,12.18
2023-02-18T12:14:02.365Z,15.10
2023-02-18T12:19:22.994Z,17.92
2023-02-18T12:24:46.641Z,12.77
2023-02-18T12:30:22.968Z,15.13
2023-02-18T12:35:43.299Z,19.23
2023-02-18T12:41:02.637Z,21.05
2023-02-18T12:46:32.362Z,11.27
2023-02-18T12:57:05.522Z,15.52
2023-02-18T13:02:24.599Z,13.35
2023-02-18T13:07:41.404Z,36.90
2023-02-18T13:12:50.179Z,15.48
2023-02-18T13:17:58.907Z,19.07
2023-02-18T13:23:04.942Z,19.03
2023-02-18T13:28:19.252Z,28.50
2023-02-18T13:33:36.306Z,34.95
2023-02-18T13:38:59.695Z,25.48
2023-02-18T13:44:08.240Z,23.15
2023-02-18T13:49:14.228Z,29.53
2023-02-18T13:54:26.233Z,21.05
2023-02-18T13:59:36.822Z,40.70
2023-02-18T14:04:53.901Z,28.00
2023-02-18T14:10:00.368Z,28.20
2023-02-18T14:15:23.423Z,38.40
2023-02-18T14:20:56.533Z,48.55
2023-02-18T14:26:08.057Z,34.28
2023-02-18T14:31:36.864Z,33.13
2023-02-18T14:36:47.772Z,34.60
2023-02-18T14:42:01.401Z,40.00
2023-02-18T14:47:20.860Z,35.55
2023-02-18T14:57:38.601Z,37.05
2023-02-18T15:02:42.292Z,40.00
2023-02-18T15:08:00.313Z,38.13
2023-02-18T15:13:08.790Z,40.60
2023-02-18T15:18:22.653Z,45.05
2023-02-18T15:23:26.521Z,44.20
2023-02-18T15:28:33.975Z,41.28
2023-02-18T15:33:37.781Z,43.97
2023-02-18T15:38:43.064Z,46.97
2023-02-18T15:43:56.483Z,68.53
2023-02-18T15:49:03.119Z,62.50
2023-02-18T15:54:07.026Z,78.28
2023-02-18T15:59:20.177Z,82.20
2023-02-18T16:04:26.539Z,69.13
2023-02-18T16:09:33.586Z,59.70
2023-02-18T16:14:46.729Z,79.85
2023-02-18T16:20:04.454Z,59.47
2023-02-18T16:25:17.171Z,68.45
2023-02-18T16:30:26.595Z,57.78
2023-02-18T16:35:43.879Z,40.70
2023-02-18T16:40:53.412Z,50.97
2023-02-18T16:46:01.045Z,69.28
2023-02-18T16:51:08.004Z,70.70
2023-02-18T16:56:17.745Z,43.70
2023-02-18T17:06:32.156Z,68.97
2023-02-18T17:11:37.150Z,32.28
2023-02-18T17:16:42.310Z,27.40
2023-02-18T17:21:48.592Z,34.75
2023-02-18T17:26:52.813Z,27.85
2023-02-18T17:31:58.314Z,22.90
2023-02-18T17:37:02.039Z,17.70
2023-02-18T17:42:05.925Z,17.50
2023-02-18T17:47:11.049Z,17.42
2023-02-18T17:52:30.785Z,17.92
2023-02-18T18:02:39.719Z,19.10
2023-02-18T18:07:43.694Z,35.38
2023-02-18T18:12:47.773Z,19.58
2023-02-18T18:17:53.818Z,23.27
2023-02-18T18:22:59.151Z,13.45
2023-02-18T18:28:06.798Z,17.25
2023-02-18T18:33:18.262Z,12.07
2023-02-18T18:38:23.466Z,10.07
2023-02-18T18:43:32.494Z,12.15
2023-02-18T18:48:38.231Z,11.35
2023-02-18T18:53:42.049Z,6.95
2023-02-18T18:58:45.816Z,6.70
2023-02-18T19:03:51.084Z,8.32
2023-02-18T19:08:54.870Z,6.63
2023-02-18T19:13:59.081Z,5.20
2023-02-18T19:19:04.407Z,6.40
2023-02-18T19:24:08.954Z,5.22
2023-02-18T19:29:12.689Z,5.80
2023-02-18T19:34:17.870Z,5.05
2023-02-18T19:39:21.711Z,7.45
2023-02-18T19:44:25.449Z,5.43
2023-02-18T19:49:30.566Z,6.60
2023-02-18T19:54:34.456Z,8.30
2023-02-18T19:59:38.410Z,15.85
2023-02-18T20:04:43.851Z,10.15
2023-02-18T20:09:47.958Z,7.85
2023-02-18T20:14:52.442Z,11.00
2023-02-18T20:19:58.070Z,6.78
2023-02-18T20:25:02.505Z,8.98
2023-02-18T20:30:07.805Z,12.80
2023-02-18T20:35:12.916Z,24.17
2023-02-18T20:40:17.128Z,7.15
2023-02-18T20:45:20.993Z,12.88
2023-02-18T20:50:26.190Z,38.08
2023-02-18T20:55:30.067Z,9.80
2023-02-18T21:00:33.828Z,12.57
2023-02-18T21:05:39.027Z,9.88
2023-02-18T21:10:45.525Z,15.23
2023-02-18T21:15:50.012Z,12.52
2023-02-18T21:20:55.554Z,13.60
2023-02-18T21:26:07.549Z,21.10
2023-02-18T21:31:17.799Z,18.27
2023-02-18T21:36:23.742Z,15.43
2023-02-18T21:41:28.573Z,15.60
2023-02-18T21:46:37.518Z,15.95
2023-02-18T21:52:00.574Z,13.13
2023-02-18T21:57:06.151Z,17.08
2023-02-18T22:02:16.296Z,20.63
2023-02-18T22:07:23.081Z,24.35
2023-02-18T22:12:27.331Z,12.23
2023-02-18T22:17:33.595Z,15.98
2023-02-18T22:22:38.745Z,19.25
2023-02-18T22:27:42.635Z,24.42
2023-02-18T22:32:46.562Z,11.18
2023-02-18T22:37:51.739Z,17.45
2023-02-18T22:42:55.540Z,33.22
2023-02-18T22:47:59.238Z,65.78
2023-02-18T22:53:04.832Z,43.88
2023-02-18T22:58:11.512Z,39.05
2023-02-18T23:03:15.188Z,20.90
2023-02-18T23:08:20.448Z,17.63
2023-02-18T23:13:24.107Z,10.35
2023-02-18T23:18:48.704Z,13.10
2023-02-18T23:23:57.366Z,9.88
2023-02-18T23:29:04.516Z,8.48
2023-02-18T23:34:13.418Z,10.15
2023-02-18T23:39:21.189Z,7.95
2023-02-18T23:44:27.134Z,7.15
2023-02-18T23:49:30.995Z,6.45
2023-02-18T23:54:36.224Z,5.90
2023-02-18T23:59:40.015Z,5.70
